sensor_id;sensor_type;location;lat;lon;timestamp;temperature;humidity
18506;DHT22;9382;53.242;10.438;2022-10-16T00:00:49;14.00;99.90
18506;DHT22;9382;53.242;10.438;2022-10-16T00:03:15;14.00;99.90
18506;DHT22;9382;53.242;10.438;2022-10-16T00:05:43;14.00;99.90
18506;DHT22;9382;53.242;10.438;2022-10-16T00:08:11;14.00;99.90
18506;DHT22;9382;53.242;10.438;2022-10-16T00:10:39;14.00;99.90
18506;DHT22;9382;53.242;10.438;2022-10-16T00:13:06;14.00;99.90
18506;DHT22;9382;53.242;10.438;2022-10-16T00:15:35;13.90;99.90
18506;DHT22;9382;53.242;10.438;2022-10-16T00:18:05;13.90;99.90
18506;DHT22;9382;53.242;10.438;2022-10-16T00:20:33;13.80;99.90
18506;DHT22;9382;53.242;10.438;2022-10-16T00:23:02;13.80;99.90
18506;DHT22;9382;53.242;10.438;2022-10-16T00:25:29;13.70;99.90
18506;DHT22;9382;53.242;10.438;2022-10-16T00:27:58;13.70;99.90
18506;DHT22;9382;53.242;10.438;2022-10-16T00:30:24;13.70;99.90
18506;DHT22;9382;53.242;10.438;2022-10-16T00:32:54;13.60;99.90
18506;DHT22;9382;53.242;10.438;2022-10-16T00:35:21;13.50;99.90
18506;DHT22;9382;53.242;10.438;2022-10-16T00:37:47;13.50;99.90
18506;DHT22;9382;53.242;10.438;2022-10-16T00:40:14;13.50;99.90
18506;DHT22;9382;53.242;10.438;2022-10-16T00:42:41;13.40;99.90
18506;DHT22;9382;53.242;10.438;2022-10-16T00:45:09;13.40;99.90
18506;DHT22;9382;53.242;10.438;2022-10-16T00:47:38;13.40;99.90
18506;DHT22;9382;53.242;10.438;2022-10-16T00:50:10;13.40;99.90
18506;DHT22;9382;53.242;10.438;2022-10-16T00:52:42;13.30;99.90
18506;DHT22;9382;53.242;10.438;2022-10-16T00:55:10;13.30;99.90
18506;DHT22;9382;53.242;10.438;2022-10-16T00:57:37;13.30;99.90
18506;DHT22;9382;53.242;10.438;2022-10-16T01:00:07;13.20;99.90
18506;DHT22;9382;53.242;10.438;2022-10-16T01:02:34;13.20;99.90
18506;DHT22;9382;53.242;10.438;2022-10-16T01:05:01;13.20;99.90
18506;DHT22;9382;53.242;10.438;2022-10-16T01:07:39;13.20;99.90
18506;DHT22;9382;53.242;10.438;2022-10-16T01:10:14;13.10;99.90
18506;DHT22;9382;53.242;10.438;2022-10-16T01:12:46;13.10;99.90
18506;DHT22;9382;53.242;10.438;2022-10-16T01:15:18;13.00;99.90
18506;DHT22;9382;53.242;10.438;2022-10-16T01:17:51;13.00;99.90
18506;DHT22;9382;53.242;10.438;2022-10-16T01:20:26;13.00;99.90
18506;DHT22;9382;53.242;10.438;2022-10-16T01:23:10;12.90;99.90
18506;DHT22;9382;53.242;10.438;2022-10-16T01:26:08;12.90;99.90
18506;DHT22;9382;53.242;10.438;2022-10-16T01:28:41;12.80;99.90
18506;DHT22;9382;53.242;10.438;2022-10-16T01:31:13;12.80;99.90
18506;DHT22;9382;53.242;10.438;2022-10-16T01:33:44;12.80;99.90
18506;DHT22;9382;53.242;10.438;2022-10-16T01:36:14;12.70;99.90
18506;DHT22;9382;53.242;10.438;2022-10-16T01:38:43;12.70;99.90
18506;DHT22;9382;53.242;10.438;2022-10-16T01:41:16;12.70;99.90
18506;DHT22;9382;53.242;10.438;2022-10-16T01:43:49;12.70;99.90
18506;DHT22;9382;53.242;10.438;2022-10-16T01:46:18;12.70;99.90
18506;DHT22;9382;53.242;10.438;2022-10-16T01:48:47;12.60;99.90
18506;DHT22;9382;53.242;10.438;2022-10-16T01:51:15;12.60;99.90
18506;DHT22;9382;53.242;10.438;2022-10-16T01:53:46;12.60;99.90
18506;DHT22;9382;53.242;10.438;2022-10-16T01:56:15;12.60;99.90
18506;DHT22;9382;53.242;10.438;2022-10-16T01:58:48;12.60;99.90
18506;DHT22;9382;53.242;10.438;2022-10-16T02:01:19;12.50;99.90
18506;DHT22;9382;53.242;10.438;2022-10-16T02:03:51;12.50;99.90
18506;DHT22;9382;53.242;10.438;2022-10-16T02:06:19;12.50;99.90
18506;DHT22;9382;53.242;10.438;2022-10-16T02:08:47;12.50;99.90
18506;DHT22;9382;53.242;10.438;2022-10-16T02:11:14;12.40;99.90
18506;DHT22;9382;53.242;10.438;2022-10-16T02:13:43;12.40;99.90
18506;DHT22;9382;53.242;10.438;2022-10-16T02:16:13;12.40;99.90
18506;DHT22;9382;53.242;10.438;2022-10-16T02:18:41;12.40;99.90
18506;DHT22;9382;53.242;10.438;2022-10-16T02:21:13;12.40;99.90
18506;DHT22;9382;53.242;10.438;2022-10-16T02:23:45;12.30;99.90
18506;DHT22;9382;53.242;10.438;2022-10-16T02:26:22;12.40;99.90
18506;DHT22;9382;53.242;10.438;2022-10-16T02:28:55;12.40;99.90
18506;DHT22;9382;53.242;10.438;2022-10-16T02:31:28;12.40;99.90
18506;DHT22;9382;53.242;10.438;2022-10-16T02:33:58;12.40;99.90
18506;DHT22;9382;53.242;10.438;2022-10-16T02:36:26;12.40;99.90
18506;DHT22;9382;53.242;10.438;2022-10-16T02:38:54;12.40;99.90
18506;DHT22;9382;53.242;10.438;2022-10-16T02:41:22;12.40;99.90
18506;DHT22;9382;53.242;10.438;2022-10-16T02:43:50;12.30;99.90
18506;DHT22;9382;53.242;10.438;2022-10-16T02:46:17;12.30;99.90
18506;DHT22;9382;53.242;10.438;2022-10-16T02:48:46;12.30;99.90
18506;DHT22;9382;53.242;10.438;2022-10-16T02:51:13;12.40;99.90
18506;DHT22;9382;53.242;10.438;2022-10-16T02:53:39;12.40;99.90
18506;DHT22;9382;53.242;10.438;2022-10-16T02:56:06;12.50;99.90
18506;DHT22;9382;53.242;10.438;2022-10-16T02:58:33;12.50;99.90
18506;DHT22;9382;53.242;10.438;2022-10-16T03:01:00;12.40;99.90
18506;DHT22;9382;53.242;10.438;2022-10-16T03:03:27;12.40;99.90
18506;DHT22;9382;53.242;10.438;2022-10-16T03:05:55;12.40;99.90
18506;DHT22;9382;53.242;10.438;2022-10-16T03:08:21;12.30;99.90
18506;DHT22;9382;53.242;10.438;2022-10-16T03:10:51;12.30;99.90
18506;DHT22;9382;53.242;10.438;2022-10-16T03:13:18;12.20;99.90
18506;DHT22;9382;53.242;10.438;2022-10-16T03:15:46;12.30;99.90
18506;DHT22;9382;53.242;10.438;2022-10-16T03:18:12;12.20;99.90
18506;DHT22;9382;53.242;10.438;2022-10-16T03:20:39;12.30;99.90
18506;DHT22;9382;53.242;10.438;2022-10-16T03:23:08;12.20;99.90
18506;DHT22;9382;53.242;10.438;2022-10-16T03:25:35;12.30;99.90
18506;DHT22;9382;53.242;10.438;2022-10-16T03:28:02;12.30;99.90
18506;DHT22;9382;53.242;10.438;2022-10-16T03:30:29;12.20;99.90
18506;DHT22;9382;53.242;10.438;2022-10-16T03:32:55;12.20;99.90
18506;DHT22;9382;53.242;10.438;2022-10-16T03:35:23;12.20;99.90
18506;DHT22;9382;53.242;10.438;2022-10-16T03:37:51;12.20;99.90
18506;DHT22;9382;53.242;10.438;2022-10-16T03:40:19;12.20;99.90
18506;DHT22;9382;53.242;10.438;2022-10-16T03:42:46;12.10;99.90
18506;DHT22;9382;53.242;10.438;2022-10-16T03:45:12;12.10;99.90
18506;DHT22;9382;53.242;10.438;2022-10-16T03:47:39;12.10;99.90
18506;DHT22;9382;53.242;10.438;2022-10-16T03:50:07;12.00;99.90
18506;DHT22;9382;53.242;10.438;2022-10-16T03:52:34;12.00;99.90
18506;DHT22;9382;53.242;10.438;2022-10-16T03:55:01;12.00;99.90
18506;DHT22;9382;53.242;10.438;2022-10-16T03:57:29;12.10;99.90
18506;DHT22;9382;53.242;10.438;2022-10-16T03:59:55;12.00;99.90
18506;DHT22;9382;53.242;10.438;2022-10-16T04:02:22;12.00;99.90
18506;DHT22;9382;53.242;10.438;2022-10-16T04:04:49;12.10;99.90
18506;DHT22;9382;53.242;10.438;2022-10-16T04:07:16;12.10;99.90
18506;DHT22;9382;53.242;10.438;2022-10-16T04:09:42;12.10;99.90
18506;DHT22;9382;53.242;10.438;2022-10-16T04:12:09;12.10;99.90
18506;DHT22;9382;53.242;10.438;2022-10-16T04:14:37;12.00;99.90
18506;DHT22;9382;53.242;10.438;2022-10-16T04:17:04;12.00;99.90
18506;DHT22;9382;53.242;10.438;2022-10-16T04:19:30;12.00;99.90
18506;DHT22;9382;53.242;10.438;2022-10-16T04:21:57;12.00;99.90
18506;DHT22;9382;53.242;10.438;2022-10-16T04:24:24;11.90;99.90
18506;DHT22;9382;53.242;10.438;2022-10-16T04:26:50;11.90;99.90
18506;DHT22;9382;53.242;10.438;2022-10-16T04:29:17;11.90;99.90
18506;DHT22;9382;53.242;10.438;2022-10-16T04:31:46;11.90;99.90
18506;DHT22;9382;53.242;10.438;2022-10-16T04:34:13;12.00;99.90
18506;DHT22;9382;53.242;10.438;2022-10-16T04:36:40;11.90;99.90
18506;DHT22;9382;53.242;10.438;2022-10-16T04:39:06;11.90;99.90
18506;DHT22;9382;53.242;10.438;2022-10-16T04:41:33;12.00;99.90
18506;DHT22;9382;53.242;10.438;2022-10-16T04:44:00;12.00;99.90
18506;DHT22;9382;53.242;10.438;2022-10-16T04:46:27;12.00;99.90
18506;DHT22;9382;53.242;10.438;2022-10-16T04:48:55;12.00;99.90
18506;DHT22;9382;53.242;10.438;2022-10-16T04:51:21;12.00;99.90
18506;DHT22;9382;53.242;10.438;2022-10-16T04:53:48;12.10;99.90
18506;DHT22;9382;53.242;10.438;2022-10-16T04:56:15;12.10;99.90
18506;DHT22;9382;53.242;10.438;2022-10-16T04:58:41;12.10;99.90
18506;DHT22;9382;53.242;10.438;2022-10-16T05:01:08;12.10;99.90
18506;DHT22;9382;53.242;10.438;2022-10-16T05:03:35;12.10;99.90
18506;DHT22;9382;53.242;10.438;2022-10-16T05:06:05;12.10;99.90
18506;DHT22;9382;53.242;10.438;2022-10-16T05:08:31;12.10;99.90
18506;DHT22;9382;53.242;10.438;2022-10-16T05:10:58;12.00;99.90
18506;DHT22;9382;53.242;10.438;2022-10-16T05:13:25;12.00;99.90
18506;DHT22;9382;53.242;10.438;2022-10-16T05:15:52;12.00;99.90
18506;DHT22;9382;53.242;10.438;2022-10-16T05:18:19;11.90;99.90
18506;DHT22;9382;53.242;10.438;2022-10-16T05:20:45;11.90;99.90
18506;DHT22;9382;53.242;10.438;2022-10-16T05:23:13;11.90;99.90
18506;DHT22;9382;53.242;10.438;2022-10-16T05:25:40;11.90;99.90
18506;DHT22;9382;53.242;10.438;2022-10-16T05:28:07;11.80;99.90
18506;DHT22;9382;53.242;10.438;2022-10-16T05:30:34;11.90;99.90
18506;DHT22;9382;53.242;10.438;2022-10-16T05:33:00;11.80;99.90
18506;DHT22;9382;53.242;10.438;2022-10-16T05:35:27;11.90;99.90
18506;DHT22;9382;53.242;10.438;2022-10-16T05:37:54;11.90;99.90
18506;DHT22;9382;53.242;10.438;2022-10-16T05:40:22;11.90;99.90
18506;DHT22;9382;53.242;10.438;2022-10-16T05:42:49;11.90;99.90
18506;DHT22;9382;53.242;10.438;2022-10-16T05:45:15;11.90;99.90
18506;DHT22;9382;53.242;10.438;2022-10-16T05:47:42;11.80;99.90
18506;DHT22;9382;53.242;10.438;2022-10-16T05:50:09;11.80;99.90
18506;DHT22;9382;53.242;10.438;2022-10-16T05:52:35;11.80;99.90
18506;DHT22;9382;53.242;10.438;2022-10-16T05:55:03;11.80;99.90
18506;DHT22;9382;53.242;10.438;2022-10-16T05:57:31;11.80;99.90
18506;DHT22;9382;53.242;10.438;2022-10-16T05:59:57;11.80;99.90
18506;DHT22;9382;53.242;10.438;2022-10-16T06:02:24;11.80;99.90
18506;DHT22;9382;53.242;10.438;2022-10-16T06:04:51;11.70;99.90
18506;DHT22;9382;53.242;10.438;2022-10-16T06:07:19;11.70;99.90
18506;DHT22;9382;53.242;10.438;2022-10-16T06:09:48;11.70;99.90
18506;DHT22;9382;53.242;10.438;2022-10-16T06:12:15;11.70;99.90
18506;DHT22;9382;53.242;10.438;2022-10-16T06:14:44;11.70;99.90
18506;DHT22;9382;53.242;10.438;2022-10-16T06:17:12;11.70;99.90
18506;DHT22;9382;53.242;10.438;2022-10-16T06:19:41;11.80;99.90
18506;DHT22;9382;53.242;10.438;2022-10-16T06:22:08;11.80;99.90
18506;DHT22;9382;53.242;10.438;2022-10-16T06:24:35;11.80;99.90
18506;DHT22;9382;53.242;10.438;2022-10-16T06:27:03;11.80;99.90
18506;DHT22;9382;53.242;10.438;2022-10-16T06:29:30;11.90;99.90
18506;DHT22;9382;53.242;10.438;2022-10-16T06:31:58;11.90;99.90
18506;DHT22;9382;53.242;10.438;2022-10-16T06:34:24;12.00;99.90
18506;DHT22;9382;53.242;10.438;2022-10-16T06:36:51;12.00;99.90
18506;DHT22;9382;53.242;10.438;2022-10-16T06:39:18;12.00;99.90
18506;DHT22;9382;53.242;10.438;2022-10-16T06:41:45;12.10;99.90
18506;DHT22;9382;53.242;10.438;2022-10-16T06:44:11;12.10;99.90
18506;DHT22;9382;53.242;10.438;2022-10-16T06:46:38;12.10;99.90
18506;DHT22;9382;53.242;10.438;2022-10-16T06:49:06;12.10;99.90
18506;DHT22;9382;53.242;10.438;2022-10-16T06:51:33;12.10;99.90
18506;DHT22;9382;53.242;10.438;2022-10-16T06:54:01;12.10;99.90
18506;DHT22;9382;53.242;10.438;2022-10-16T06:56:29;12.10;99.90
18506;DHT22;9382;53.242;10.438;2022-10-16T06:58:56;12.20;99.90
18506;DHT22;9382;53.242;10.438;2022-10-16T07:01:24;12.20;99.90
18506;DHT22;9382;53.242;10.438;2022-10-16T07:03:51;12.20;99.90
18506;DHT22;9382;53.242;10.438;2022-10-16T07:06:21;12.20;99.90
18506;DHT22;9382;53.242;10.438;2022-10-16T07:08:48;12.20;99.90
18506;DHT22;9382;53.242;10.438;2022-10-16T07:11:17;12.20;99.90
18506;DHT22;9382;53.242;10.438;2022-10-16T07:13:44;12.30;99.90
18506;DHT22;9382;53.242;10.438;2022-10-16T07:16:14;12.30;99.90
18506;DHT22;9382;53.242;10.438;2022-10-16T07:18:42;12.40;99.90
18506;DHT22;9382;53.242;10.438;2022-10-16T07:21:12;12.50;99.90
18506;DHT22;9382;53.242;10.438;2022-10-16T07:23:41;12.60;99.90
18506;DHT22;9382;53.242;10.438;2022-10-16T07:26:09;12.70;99.90
18506;DHT22;9382;53.242;10.438;2022-10-16T07:28:36;12.80;99.90
18506;DHT22;9382;53.242;10.438;2022-10-16T07:31:04;13.00;99.90
18506;DHT22;9382;53.242;10.438;2022-10-16T07:33:33;13.10;99.90
18506;DHT22;9382;53.242;10.438;2022-10-16T07:36:00;13.10;99.90
18506;DHT22;9382;53.242;10.438;2022-10-16T07:38:27;13.20;99.90
18506;DHT22;9382;53.242;10.438;2022-10-16T07:41:00;13.30;99.90
18506;DHT22;9382;53.242;10.438;2022-10-16T07:43:27;13.30;99.90
18506;DHT22;9382;53.242;10.438;2022-10-16T07:45:54;13.40;99.90
18506;DHT22;9382;53.242;10.438;2022-10-16T07:48:22;13.50;99.90
18506;DHT22;9382;53.242;10.438;2022-10-16T07:50:49;13.60;99.90
18506;DHT22;9382;53.242;10.438;2022-10-16T07:53:16;13.90;99.90
18506;DHT22;9382;53.242;10.438;2022-10-16T07:55:43;14.10;99.90
18506;DHT22;9382;53.242;10.438;2022-10-16T07:58:11;14.40;99.90
18506;DHT22;9382;53.242;10.438;2022-10-16T08:00:38;14.70;99.90
18506;DHT22;9382;53.242;10.438;2022-10-16T08:03:04;14.80;99.90
18506;DHT22;9382;53.242;10.438;2022-10-16T08:05:32;14.90;99.90
18506;DHT22;9382;53.242;10.438;2022-10-16T08:08:00;15.10;99.90
18506;DHT22;9382;53.242;10.438;2022-10-16T08:10:27;15.30;99.90
18506;DHT22;9382;53.242;10.438;2022-10-16T08:12:54;15.50;99.90
18506;DHT22;9382;53.242;10.438;2022-10-16T08:15:23;15.70;99.90
18506;DHT22;9382;53.242;10.438;2022-10-16T08:17:57;16.00;99.90
18506;DHT22;9382;53.242;10.438;2022-10-16T08:20:24;16.10;99.90
18506;DHT22;9382;53.242;10.438;2022-10-16T08:22:51;16.20;99.90
18506;DHT22;9382;53.242;10.438;2022-10-16T08:25:18;16.30;99.90
18506;DHT22;9382;53.242;10.438;2022-10-16T08:27:44;16.20;99.90
18506;DHT22;9382;53.242;10.438;2022-10-16T08:30:11;16.10;99.90
18506;DHT22;9382;53.242;10.438;2022-10-16T08:32:40;16.00;99.90
18506;DHT22;9382;53.242;10.438;2022-10-16T08:35:08;15.90;99.90
18506;DHT22;9382;53.242;10.438;2022-10-16T08:37:36;15.90;99.90
18506;DHT22;9382;53.242;10.438;2022-10-16T08:40:04;15.90;99.90
18506;DHT22;9382;53.242;10.438;2022-10-16T08:42:45;16.20;99.90
18506;DHT22;9382;53.242;10.438;2022-10-16T08:45:31;16.50;99.90
18506;DHT22;9382;53.242;10.438;2022-10-16T08:48:11;16.70;99.90
18506;DHT22;9382;53.242;10.438;2022-10-16T08:50:41;16.70;99.90
18506;DHT22;9382;53.242;10.438;2022-10-16T08:53:14;16.70;99.90
18506;DHT22;9382;53.242;10.438;2022-10-16T08:55:43;16.70;99.90
18506;DHT22;9382;53.242;10.438;2022-10-16T08:58:13;16.90;99.90
18506;DHT22;9382;53.242;10.438;2022-10-16T09:00:42;17.00;99.90
18506;DHT22;9382;53.242;10.438;2022-10-16T09:03:17;17.10;99.90
18506;DHT22;9382;53.242;10.438;2022-10-16T09:06:12;17.20;99.90
18506;DHT22;9382;53.242;10.438;2022-10-16T09:08:51;17.20;99.90
18506;DHT22;9382;53.242;10.438;2022-10-16T09:11:25;17.30;99.90
18506;DHT22;9382;53.242;10.438;2022-10-16T09:14:04;17.50;99.90
18506;DHT22;9382;53.242;10.438;2022-10-16T09:16:36;17.50;99.90
18506;DHT22;9382;53.242;10.438;2022-10-16T09:19:12;17.70;99.90
18506;DHT22;9382;53.242;10.438;2022-10-16T09:21:42;17.80;99.90
18506;DHT22;9382;53.242;10.438;2022-10-16T09:24:12;18.00;99.90
18506;DHT22;9382;53.242;10.438;2022-10-16T09:26:39;18.20;99.90
18506;DHT22;9382;53.242;10.438;2022-10-16T09:29:08;18.30;99.90
18506;DHT22;9382;53.242;10.438;2022-10-16T09:31:36;18.50;99.90
18506;DHT22;9382;53.242;10.438;2022-10-16T09:34:05;18.50;99.90
18506;DHT22;9382;53.242;10.438;2022-10-16T09:36:36;18.60;99.90
18506;DHT22;9382;53.242;10.438;2022-10-16T09:39:07;18.60;99.90
18506;DHT22;9382;53.242;10.438;2022-10-16T09:41:35;18.60;99.90
18506;DHT22;9382;53.242;10.438;2022-10-16T09:44:05;18.60;99.90
18506;DHT22;9382;53.242;10.438;2022-10-16T09:46:34;18.60;99.90
18506;DHT22;9382;53.242;10.438;2022-10-16T09:49:16;18.80;99.90
18506;DHT22;9382;53.242;10.438;2022-10-16T09:51:44;18.80;99.90
18506;DHT22;9382;53.242;10.438;2022-10-16T09:54:15;18.90;99.90
18506;DHT22;9382;53.242;10.438;2022-10-16T09:56:42;19.00;99.90
18506;DHT22;9382;53.242;10.438;2022-10-16T09:59:13;19.10;99.90
18506;DHT22;9382;53.242;10.438;2022-10-16T10:01:42;19.20;99.90
18506;DHT22;9382;53.242;10.438;2022-10-16T10:04:12;19.20;99.90
18506;DHT22;9382;53.242;10.438;2022-10-16T10:06:43;19.30;99.90
18506;DHT22;9382;53.242;10.438;2022-10-16T10:09:19;19.30;99.90
18506;DHT22;9382;53.242;10.438;2022-10-16T10:11:51;19.30;99.90
18506;DHT22;9382;53.242;10.438;2022-10-16T10:14:32;19.40;99.90
18506;DHT22;9382;53.242;10.438;2022-10-16T10:17:16;19.50;99.90
18506;DHT22;9382;53.242;10.438;2022-10-16T10:19:50;19.40;99.90
18506;DHT22;9382;53.242;10.438;2022-10-16T10:22:22;19.40;99.90
18506;DHT22;9382;53.242;10.438;2022-10-16T10:25:13;19.60;99.90
18506;DHT22;9382;53.242;10.438;2022-10-16T10:27:49;19.90;99.90
18506;DHT22;9382;53.242;10.438;2022-10-16T10:30:20;20.00;99.90
18506;DHT22;9382;53.242;10.438;2022-10-16T10:33:00;20.30;99.90
18506;DHT22;9382;53.242;10.438;2022-10-16T10:35:38;20.40;99.90
18506;DHT22;9382;53.242;10.438;2022-10-16T10:38:16;20.30;99.90
18506;DHT22;9382;53.242;10.438;2022-10-16T10:40:51;20.50;99.90
18506;DHT22;9382;53.242;10.438;2022-10-16T10:43:29;20.50;99.90
18506;DHT22;9382;53.242;10.438;2022-10-16T10:46:03;20.50;99.90
18506;DHT22;9382;53.242;10.438;2022-10-16T10:48:49;20.70;99.90
18506;DHT22;9382;53.242;10.438;2022-10-16T10:51:24;21.00;99.90
18506;DHT22;9382;53.242;10.438;2022-10-16T10:53:58;21.50;99.90
18506;DHT22;9382;53.242;10.438;2022-10-16T10:56:41;22.10;99.90
18506;DHT22;9382;53.242;10.438;2022-10-16T11:02:10;22.40;99.90
18506;DHT22;9382;53.242;10.438;2022-10-16T11:05:06;22.50;99.90
18506;DHT22;9382;53.242;10.438;2022-10-16T11:07:41;22.80;99.90
18506;DHT22;9382;53.242;10.438;2022-10-16T11:10:14;22.80;99.90
18506;DHT22;9382;53.242;10.438;2022-10-16T11:12:44;22.60;99.90
18506;DHT22;9382;53.242;10.438;2022-10-16T11:15:15;22.90;99.90
18506;DHT22;9382;53.242;10.438;2022-10-16T11:17:46;23.10;99.90
18506;DHT22;9382;53.242;10.438;2022-10-16T11:20:18;23.50;99.90
18506;DHT22;9382;53.242;10.438;2022-10-16T11:22:51;23.80;99.90
18506;DHT22;9382;53.242;10.438;2022-10-16T11:25:22;24.10;99.90
18506;DHT22;9382;53.242;10.438;2022-10-16T11:27:54;23.60;99.90
18506;DHT22;9382;53.242;10.438;2022-10-16T11:30:24;22.90;99.90
18506;DHT22;9382;53.242;10.438;2022-10-16T11:33:03;22.40;99.90
18506;DHT22;9382;53.242;10.438;2022-10-16T11:35:39;22.10;99.90
18506;DHT22;9382;53.242;10.438;2022-10-16T11:38:15;21.80;99.90
18506;DHT22;9382;53.242;10.438;2022-10-16T11:40:48;21.40;99.90
18506;DHT22;9382;53.242;10.438;2022-10-16T11:43:21;21.50;99.90
18506;DHT22;9382;53.242;10.438;2022-10-16T11:45:50;21.40;99.90
18506;DHT22;9382;53.242;10.438;2022-10-16T11:48:24;22.50;99.90
18506;DHT22;9382;53.242;10.438;2022-10-16T11:50:54;23.30;99.90
18506;DHT22;9382;53.242;10.438;2022-10-16T11:53:41;23.00;99.90
18506;DHT22;9382;53.242;10.438;2022-10-16T11:56:12;22.40;99.90
18506;DHT22;9382;53.242;10.438;2022-10-16T11:58:45;21.80;99.90
18506;DHT22;9382;53.242;10.438;2022-10-16T12:01:18;21.10;99.90
18506;DHT22;9382;53.242;10.438;2022-10-16T12:03:53;20.40;99.90
18506;DHT22;9382;53.242;10.438;2022-10-16T12:06:30;20.10;99.90
18506;DHT22;9382;53.242;10.438;2022-10-16T12:09:00;21.40;99.90
18506;DHT22;9382;53.242;10.438;2022-10-16T12:11:37;21.80;99.90
18506;DHT22;9382;53.242;10.438;2022-10-16T12:14:21;22.00;99.90
18506;DHT22;9382;53.242;10.438;2022-10-16T12:16:54;23.20;99.90
18506;DHT22;9382;53.242;10.438;2022-10-16T12:19:22;23.10;99.90
18506;DHT22;9382;53.242;10.438;2022-10-16T12:21:50;22.70;99.90
18506;DHT22;9382;53.242;10.438;2022-10-16T12:24:30;23.80;99.90
18506;DHT22;9382;53.242;10.438;2022-10-16T12:26:58;25.20;99.90
18506;DHT22;9382;53.242;10.438;2022-10-16T12:29:32;26.20;99.90
18506;DHT22;9382;53.242;10.438;2022-10-16T12:32:00;25.80;99.90
18506;DHT22;9382;53.242;10.438;2022-10-16T12:34:29;25.90;99.90
18506;DHT22;9382;53.242;10.438;2022-10-16T12:37:08;26.00;99.90
18506;DHT22;9382;53.242;10.438;2022-10-16T12:39:37;24.30;99.90
18506;DHT22;9382;53.242;10.438;2022-10-16T12:42:19;24.00;99.90
18506;DHT22;9382;53.242;10.438;2022-10-16T12:44:46;24.50;99.90
18506;DHT22;9382;53.242;10.438;2022-10-16T12:47:20;23.40;99.90
18506;DHT22;9382;53.242;10.438;2022-10-16T12:49:49;22.40;99.90
18506;DHT22;9382;53.242;10.438;2022-10-16T12:52:29;21.40;99.90
18506;DHT22;9382;53.242;10.438;2022-10-16T12:55:04;21.30;99.90
18506;DHT22;9382;53.242;10.438;2022-10-16T12:57:39;21.80;99.90
18506;DHT22;9382;53.242;10.438;2022-10-16T13:00:18;23.10;99.90
18506;DHT22;9382;53.242;10.438;2022-10-16T13:03:06;24.60;99.90
18506;DHT22;9382;53.242;10.438;2022-10-16T13:05:49;26.10;99.90
18506;DHT22;9382;53.242;10.438;2022-10-16T13:08:35;27.90;99.90
18506;DHT22;9382;53.242;10.438;2022-10-16T13:11:11;28.30;99.90
18506;DHT22;9382;53.242;10.438;2022-10-16T13:14:16;28.90;99.90
18506;DHT22;9382;53.242;10.438;2022-10-16T13:16:55;29.10;99.90
18506;DHT22;9382;53.242;10.438;2022-10-16T13:19:30;29.80;99.90
18506;DHT22;9382;53.242;10.438;2022-10-16T13:22:04;30.00;99.90
18506;DHT22;9382;53.242;10.438;2022-10-16T13:24:48;29.80;99.90
18506;DHT22;9382;53.242;10.438;2022-10-16T13:27:25;30.50;99.90
18506;DHT22;9382;53.242;10.438;2022-10-16T13:30:02;30.00;99.80
18506;DHT22;9382;53.242;10.438;2022-10-16T13:32:34;29.20;99.90
18506;DHT22;9382;53.242;10.438;2022-10-16T13:35:01;29.50;98.40
18506;DHT22;9382;53.242;10.438;2022-10-16T13:37:29;29.20;99.50
18506;DHT22;9382;53.242;10.438;2022-10-16T13:40:09;29.90;98.10
18506;DHT22;9382;53.242;10.438;2022-10-16T13:42:41;30.50;96.60
18506;DHT22;9382;53.242;10.438;2022-10-16T13:45:18;30.60;96.60
18506;DHT22;9382;53.242;10.438;2022-10-16T13:47:44;29.90;95.10
18506;DHT22;9382;53.242;10.438;2022-10-16T13:50:13;30.00;95.60
18506;DHT22;9382;53.242;10.438;2022-10-16T13:52:40;30.20;93.90
18506;DHT22;9382;53.242;10.438;2022-10-16T13:55:11;30.40;93.80
18506;DHT22;9382;53.242;10.438;2022-10-16T13:57:38;29.50;93.60
18506;DHT22;9382;53.242;10.438;2022-10-16T14:00:19;29.00;92.70
18506;DHT22;9382;53.242;10.438;2022-10-16T14:02:52;29.60;94.80
18506;DHT22;9382;53.242;10.438;2022-10-16T14:05:19;30.30;92.30
18506;DHT22;9382;53.242;10.438;2022-10-16T14:07:49;30.80;92.00
18506;DHT22;9382;53.242;10.438;2022-10-16T14:10:21;30.60;91.50
18506;DHT22;9382;53.242;10.438;2022-10-16T14:12:55;30.30;91.90
18506;DHT22;9382;53.242;10.438;2022-10-16T14:15:23;31.00;90.80
18506;DHT22;9382;53.242;10.438;2022-10-16T14:17:51;31.20;90.70
18506;DHT22;9382;53.242;10.438;2022-10-16T14:20:22;30.60;89.60
18506;DHT22;9382;53.242;10.438;2022-10-16T14:22:59;30.50;90.70
18506;DHT22;9382;53.242;10.438;2022-10-16T14:25:28;30.60;90.00
18506;DHT22;9382;53.242;10.438;2022-10-16T14:28:01;30.50;90.70
18506;DHT22;9382;53.242;10.438;2022-10-16T14:30:30;30.80;91.80
18506;DHT22;9382;53.242;10.438;2022-10-16T14:32:59;31.20;90.30
18506;DHT22;9382;53.242;10.438;2022-10-16T14:35:29;30.80;89.00
18506;DHT22;9382;53.242;10.438;2022-10-16T14:37:58;31.10;88.20
18506;DHT22;9382;53.242;10.438;2022-10-16T14:40:27;30.90;86.60
18506;DHT22;9382;53.242;10.438;2022-10-16T14:42:54;30.40;88.00
18506;DHT22;9382;53.242;10.438;2022-10-16T14:45:24;30.30;88.10
18506;DHT22;9382;53.242;10.438;2022-10-16T14:47:55;30.20;87.80
18506;DHT22;9382;53.242;10.438;2022-10-16T14:50:23;28.40;90.00
18506;DHT22;9382;53.242;10.438;2022-10-16T14:52:50;25.80;92.30
18506;DHT22;9382;53.242;10.438;2022-10-16T14:55:17;24.00;96.00
18506;DHT22;9382;53.242;10.438;2022-10-16T14:57:44;24.00;96.90
18506;DHT22;9382;53.242;10.438;2022-10-16T15:00:19;24.70;95.10
18506;DHT22;9382;53.242;10.438;2022-10-16T15:02:47;25.00;96.20
18506;DHT22;9382;53.242;10.438;2022-10-16T15:05:19;26.10;94.40
18506;DHT22;9382;53.242;10.438;2022-10-16T15:07:47;26.80;94.70
18506;DHT22;9382;53.242;10.438;2022-10-16T15:10:15;27.80;93.90
18506;DHT22;9382;53.242;10.438;2022-10-16T15:12:42;28.40;91.60
18506;DHT22;9382;53.242;10.438;2022-10-16T15:15:25;28.50;90.90
18506;DHT22;9382;53.242;10.438;2022-10-16T15:17:54;28.10;91.20
18506;DHT22;9382;53.242;10.438;2022-10-16T15:20:24;28.10;92.30
18506;DHT22;9382;53.242;10.438;2022-10-16T15:22:51;28.40;90.90
18506;DHT22;9382;53.242;10.438;2022-10-16T15:25:32;28.20;91.30
18506;DHT22;9382;53.242;10.438;2022-10-16T15:28:00;27.70;92.20
18506;DHT22;9382;53.242;10.438;2022-10-16T15:30:27;27.80;92.50
18506;DHT22;9382;53.242;10.438;2022-10-16T15:32:54;27.90;92.30
18506;DHT22;9382;53.242;10.438;2022-10-16T15:35:22;27.20;93.30
18506;DHT22;9382;53.242;10.438;2022-10-16T15:37:49;25.80;94.20
18506;DHT22;9382;53.242;10.438;2022-10-16T15:40:17;24.30;95.50
18506;DHT22;9382;53.242;10.438;2022-10-16T15:42:44;22.80;98.10
18506;DHT22;9382;53.242;10.438;2022-10-16T15:45:11;21.60;99.90
18506;DHT22;9382;53.242;10.438;2022-10-16T15:47:38;20.60;99.90
18506;DHT22;9382;53.242;10.438;2022-10-16T15:50:06;20.00;99.90
18506;DHT22;9382;53.242;10.438;2022-10-16T15:52:34;19.50;99.90